createdAt,value
2023-12-17T00:00:06.249Z,63.93
2023-12-17T00:01:09.005Z,64.23
2023-12-17T00:02:12.569Z,63.62
2023-12-17T00:03:19.292Z,63.80
2023-12-17T00:04:24.596Z,63.97
2023-12-17T00:05:27.298Z,64.49
2023-12-17T00:06:30.927Z,65.02
2023-12-17T00:07:33.351Z,65.43
2023-12-17T00:08:37.100Z,65.01
2023-12-17T00:09:41.256Z,64.68
2023-12-17T00:10:44.995Z,64.27
2023-12-17T00:11:47.647Z,63.81
2023-12-17T00:12:51.463Z,63.13
2023-12-17T00:13:54.286Z,63.69
2023-12-17T00:14:58.033Z,63.64
2023-12-17T00:16:00.544Z,64.03
2023-12-17T00:17:04.291Z,64.17
2023-12-17T00:18:07.621Z,64.59
2023-12-17T00:19:11.980Z,63.54
2023-12-17T00:20:15.001Z,64.17
2023-12-17T00:21:19.118Z,64.92
2023-12-17T00:22:21.783Z,63.47
2023-12-17T00:23:25.882Z,63.11
2023-12-17T00:24:28.937Z,63.55
2023-12-17T00:25:34.796Z,63.64
2023-12-17T00:26:37.641Z,63.48
2023-12-17T00:27:41.580Z,63.67
2023-12-17T00:28:44.409Z,64.01
2023-12-17T00:29:48.203Z,64.36
2023-12-17T00:30:52.265Z,64.67
2023-12-17T00:32:00.726Z,64.55
2023-12-17T00:33:05.549Z,64.76
2023-12-17T00:34:09.399Z,64.74
2023-12-17T00:35:13.783Z,64.99
2023-12-17T00:36:16.735Z,64.80
2023-12-17T00:37:19.583Z,65.13
2023-12-17T00:38:23.692Z,65.66
2023-12-17T00:39:27.198Z,65.10
2023-12-17T00:40:30.866Z,65.05
2023-12-17T00:41:35.278Z,64.46
2023-12-17T00:42:39.228Z,64.52
2023-12-17T00:43:42.050Z,64.70
2023-12-17T00:44:45.867Z,65.19
2023-12-17T00:45:48.631Z,65.41
2023-12-17T00:46:52.256Z,65.39
2023-12-17T00:47:55.215Z,65.47
2023-12-17T00:48:59.078Z,65.27
2023-12-17T00:50:01.847Z,64.79
2023-12-17T00:51:06.551Z,65.02
2023-12-17T00:52:09.288Z,65.31
2023-12-17T00:53:12.844Z,65.41
2023-12-17T00:54:15.347Z,65.70
2023-12-17T00:55:19.609Z,66.00
2023-12-17T00:56:22.469Z,66.45
2023-12-17T00:57:27.899Z,65.79
2023-12-17T00:58:30.493Z,66.09
2023-12-17T00:59:34.101Z,66.54
2023-12-17T01:00:45.351Z,66.20
2023-12-17T01:01:54.581Z,66.30
2023-12-17T01:02:57.730Z,65.98
2023-12-17T01:04:02.525Z,66.41
2023-12-17T01:05:05.939Z,66.95
2023-12-17T01:06:10.080Z,66.53
2023-12-17T01:07:12.723Z,66.41
2023-12-17T01:08:16.713Z,66.33
2023-12-17T01:09:19.700Z,66.50
2023-12-17T01:10:23.398Z,66.00
2023-12-17T01:11:25.815Z,66.45
2023-12-17T01:12:31.290Z,66.34
2023-12-17T01:13:35.330Z,66.66
2023-12-17T01:14:40.374Z,67.44
2023-12-17T01:15:43.148Z,67.02
2023-12-17T01:16:47.605Z,67.16
2023-12-17T01:17:50.331Z,67.11
2023-12-17T01:18:54.321Z,67.26
2023-12-17T01:19:57.003Z,66.78
2023-12-17T01:21:02.247Z,67.38
2023-12-17T01:22:05.498Z,67.47
2023-12-17T01:23:08.988Z,67.57
2023-12-17T01:28:07.776Z,65.81
2023-12-17T01:29:11.109Z,65.79
2023-12-17T01:30:16.539Z,65.29
2023-12-17T01:31:20.163Z,64.94
2023-12-17T01:32:22.779Z,65.15
2023-12-17T01:33:26.792Z,66.21
2023-12-17T01:34:29.338Z,66.47
2023-12-17T01:35:33.137Z,66.66
2023-12-17T01:36:35.652Z,66.81
2023-12-17T01:37:39.294Z,66.83
2023-12-17T01:38:41.735Z,66.44
2023-12-17T01:39:45.851Z,66.44
2023-12-17T01:40:48.544Z,66.62
2023-12-17T01:41:51.997Z,66.75
2023-12-17T01:42:54.528Z,66.22
2023-12-17T01:43:59.460Z,66.47
2023-12-17T01:45:01.965Z,66.28
2023-12-17T01:46:06.665Z,66.55
2023-12-17T01:47:09.866Z,67.53
2023-12-17T01:48:14.638Z,68.22
2023-12-17T01:49:17.715Z,68.55
2023-12-17T01:50:23.473Z,68.50
2023-12-17T01:51:27.635Z,68.55
2023-12-17T01:52:31.525Z,68.55
2023-12-17T01:53:34.974Z,68.40
2023-12-17T01:54:38.547Z,68.46
2023-12-17T01:55:41.571Z,68.15
2023-12-17T01:56:43.819Z,68.10
2023-12-17T01:57:47.923Z,67.38
2023-12-17T01:58:50.282Z,67.61
2023-12-17T01:59:55.448Z,67.42
2023-12-17T02:00:58.857Z,67.43
2023-12-17T02:02:03.973Z,67.61
2023-12-17T02:03:06.439Z,67.93
2023-12-17T02:04:10.318Z,68.01
2023-12-17T02:05:13.104Z,68.48
2023-12-17T02:06:16.723Z,68.72
2023-12-17T02:07:19.264Z,68.73
2023-12-17T02:08:22.656Z,69.17
2023-12-17T02:09:25.044Z,69.44
2023-12-17T02:10:29.361Z,69.04
2023-12-17T02:11:31.689Z,69.24
2023-12-17T02:12:35.238Z,69.45
2023-12-17T02:13:37.471Z,69.24
2023-12-17T02:14:40.760Z,68.84
2023-12-17T02:15:45.152Z,68.82
2023-12-17T02:16:48.618Z,68.29
2023-12-17T02:17:50.958Z,68.49
2023-12-17T02:18:54.822Z,68.62
2023-12-17T02:19:57.299Z,68.50
2023-12-17T02:21:02.409Z,68.38
2023-12-17T02:22:05.129Z,68.22
2023-12-17T02:23:10.030Z,68.33
2023-12-17T02:24:13.846Z,68.03
2023-12-17T02:25:17.745Z,67.86
2023-12-17T02:26:20.266Z,68.03
2023-12-17T02:27:24.410Z,68.61
2023-12-17T02:28:26.886Z,68.86
2023-12-17T02:29:31.216Z,69.04
2023-12-17T02:30:33.929Z,68.34
2023-12-17T02:31:37.773Z,68.66
2023-12-17T02:32:40.365Z,68.98
2023-12-17T02:33:44.117Z,68.84
2023-12-17T02:34:46.774Z,68.79
2023-12-17T02:35:50.417Z,68.73
2023-12-17T02:36:52.800Z,69.17
2023-12-17T02:37:56.245Z,68.19
2023-12-17T02:39:00.087Z,68.89
2023-12-17T02:40:03.635Z,69.52
2023-12-17T02:41:06.240Z,69.20
2023-12-17T02:42:09.810Z,69.60
2023-12-17T02:43:12.470Z,69.94
2023-12-17T02:44:16.396Z,69.57
2023-12-17T02:45:19.683Z,69.48
2023-12-17T02:46:23.317Z,68.92
2023-12-17T02:47:25.908Z,69.04
2023-12-17T02:48:29.797Z,69.07
2023-12-17T02:49:35.051Z,68.98
2023-12-17T02:50:38.853Z,68.75
2023-12-17T02:51:41.446Z,69.15
2023-12-17T02:52:44.878Z,69.16
2023-12-17T02:53:47.731Z,69.47
2023-12-17T02:54:52.553Z,69.22
2023-12-17T02:55:55.129Z,68.88
2023-12-17T02:56:58.841Z,68.74
2023-12-17T02:58:01.202Z,68.80
2023-12-17T02:59:07.242Z,68.23
2023-12-17T03:00:10.634Z,68.78
2023-12-17T03:01:14.189Z,68.41
2023-12-17T03:02:16.748Z,68.19
2023-12-17T03:03:20.411Z,68.00
2023-12-17T03:04:25.047Z,68.13
2023-12-17T03:05:28.682Z,67.34
2023-12-17T03:06:31.505Z,66.91
2023-12-17T03:07:34.032Z,67.11
2023-12-17T03:08:40.334Z,67.61
2023-12-17T03:09:42.939Z,67.74
2023-12-17T03:10:48.227Z,67.94
2023-12-17T03:11:50.898Z,67.81
2023-12-17T03:12:54.758Z,67.16
2023-12-17T03:13:57.670Z,67.48
2023-12-17T03:15:01.225Z,66.84
2023-12-17T03:16:03.932Z,66.72
2023-12-17T03:17:07.419Z,66.07
2023-12-17T03:18:10.131Z,66.13
2023-12-17T03:19:13.867Z,66.57
2023-12-17T03:20:16.718Z,65.77
2023-12-17T03:21:19.608Z,65.95
2023-12-17T03:22:23.268Z,66.33
2023-12-17T03:23:25.605Z,67.02
2023-12-17T03:24:29.121Z,66.73
2023-12-17T03:25:31.713Z,66.51
2023-12-17T03:26:37.272Z,65.90
2023-12-17T03:27:39.817Z,66.25
2023-12-17T03:28:43.245Z,66.34
2023-12-17T03:29:45.779Z,65.34
2023-12-17T03:30:49.773Z,65.78
2023-12-17T03:31:52.521Z,65.26
2023-12-17T03:32:56.095Z,65.25
2023-12-17T03:33:58.948Z,65.31
2023-12-17T03:35:02.759Z,65.85
2023-12-17T03:36:06.042Z,65.67
2023-12-17T03:37:09.745Z,65.53
2023-12-17T03:38:12.798Z,64.84
2023-12-17T03:39:16.295Z,64.00
2023-12-17T03:40:18.743Z,64.43
2023-12-17T03:41:23.470Z,64.98
2023-12-17T03:42:27.522Z,64.25
2023-12-17T03:43:31.045Z,64.49
2023-12-17T03:44:34.883Z,63.75
2023-12-17T03:45:38.575Z,64.31
2023-12-17T03:46:41.111Z,64.85
2023-12-17T03:47:48.983Z,65.04
2023-12-17T03:48:52.093Z,64.62
2023-12-17T03:49:55.720Z,64.30
2023-12-17T03:50:58.427Z,64.06
2023-12-17T03:52:05.419Z,64.34
2023-12-17T03:53:11.938Z,64.37
2023-12-17T03:54:15.548Z,64.76
2023-12-17T03:55:18.133Z,63.80
2023-12-17T03:56:24.082Z,63.62
2023-12-17T03:57:28.114Z,63.13
2023-12-17T03:58:32.230Z,62.87
2023-12-17T03:59:34.776Z,63.12
2023-12-17T04:00:38.684Z,63.46
2023-12-17T04:01:46.288Z,64.18
2023-12-17T04:02:50.022Z,64.55
2023-12-17T04:03:52.578Z,64.59
2023-12-17T04:04:55.135Z,64.99
2023-12-17T04:06:00.746Z,65.55
2023-12-17T04:07:04.247Z,66.17
2023-12-17T04:08:08.564Z,65.73
2023-12-17T04:09:11.429Z,65.38
2023-12-17T04:10:14.057Z,65.22
2023-12-17T04:11:17.454Z,66.35
2023-12-17T04:12:20.220Z,66.85
2023-12-17T04:13:25.280Z,66.87
2023-12-17T04:14:27.774Z,66.47
2023-12-17T04:15:31.302Z,66.32
2023-12-17T04:16:33.972Z,66.57
2023-12-17T04:17:38.304Z,66.43
2023-12-17T04:18:41.149Z,66.11
2023-12-17T04:19:45.280Z,66.24
2023-12-17T04:20:47.958Z,66.15
2023-12-17T04:21:51.689Z,65.90
2023-12-17T04:22:54.396Z,65.21
2023-12-17T04:23:58.091Z,65.21
2023-12-17T04:25:00.709Z,64.83
2023-12-17T04:26:04.182Z,64.91
2023-12-17T04:27:07.546Z,64.65
2023-12-17T04:28:10.963Z,65.14
2023-12-17T04:29:14.922Z,66.61
2023-12-17T04:30:18.722Z,66.75
2023-12-17T04:31:21.478Z,66.95
2023-12-17T04:32:25.039Z,67.04
2023-12-17T04:33:27.358Z,66.51
2023-12-17T04:34:29.852Z,66.68
2023-12-17T04:35:33.413Z,66.76
2023-12-17T04:36:36.780Z,67.33
2023-12-17T04:37:39.546Z,67.67
2023-12-17T04:38:46.653Z,67.64
2023-12-17T04:39:49.251Z,67.17
2023-12-17T04:40:52.840Z,66.45
2023-12-17T04:41:55.397Z,66.51
2023-12-17T04:42:58.871Z,65.95
2023-12-17T04:44:01.411Z,65.65
2023-12-17T04:45:07.915Z,66.22
2023-12-17T04:46:10.873Z,65.88
2023-12-17T04:47:14.446Z,65.44
2023-12-17T04:48:17.223Z,65.43
2023-12-17T04:49:20.922Z,65.62
2023-12-17T04:50:23.612Z,66.17
2023-12-17T04:51:27.189Z,66.35
2023-12-17T04:52:29.463Z,66.32
2023-12-17T04:53:33.022Z,66.55
2023-12-17T04:54:35.691Z,66.68
2023-12-17T04:55:39.324Z,66.41
2023-12-17T04:56:42.148Z,66.19
2023-12-17T04:57:45.782Z,66.38
2023-12-17T04:58:48.557Z,67.22
2023-12-17T04:59:52.107Z,67.16
2023-12-17T05:01:00.462Z,67.26
2023-12-17T05:02:04.141Z,67.37
2023-12-17T05:03:09.885Z,67.25
2023-12-17T05:04:14.270Z,67.22
2023-12-17T05:05:16.762Z,67.21
2023-12-17T05:06:20.374Z,67.74
2023-12-17T05:07:23.051Z,68.29
2023-12-17T05:08:27.219Z,68.58
2023-12-17T05:09:29.670Z,68.81
2023-12-17T05:10:33.379Z,69.21
2023-12-17T05:11:35.914Z,69.13
2023-12-17T05:12:38.575Z,68.97
2023-12-17T05:13:42.079Z,68.91
2023-12-17T05:14:44.744Z,68.57
2023-12-17T05:15:48.362Z,69.37
2023-12-17T05:16:52.231Z,68.68
2023-12-17T05:17:56.029Z,69.11
2023-12-17T05:18:58.937Z,69.24
2023-12-17T05:20:02.840Z,69.06
2023-12-17T05:21:06.558Z,69.34
2023-12-17T05:22:10.191Z,69.27
2023-12-17T05:23:14.322Z,68.86
2023-12-17T05:24:18.225Z,68.82
2023-12-17T05:25:20.896Z,69.22
2023-12-17T05:26:24.671Z,68.93
2023-12-17T05:27:27.578Z,68.28
2023-12-17T05:28:31.461Z,68.15
2023-12-17T05:29:33.829Z,68.70
2023-12-17T05:30:37.782Z,69.05
2023-12-17T05:31:40.193Z,68.47
2023-12-17T05:32:45.096Z,68.35
2023-12-17T05:33:48.133Z,68.34
2023-12-17T05:34:51.837Z,68.72
2023-12-17T05:35:54.828Z,68.92
2023-12-17T05:36:58.552Z,69.27
2023-12-17T05:38:01.066Z,69.45
2023-12-17T05:39:04.795Z,69.04
2023-12-17T05:40:09.412Z,70.07
2023-12-17T05:41:13.134Z,69.87
2023-12-17T05:42:16.179Z,69.84
2023-12-17T05:43:19.819Z,69.80
2023-12-17T05:44:23.498Z,69.93
2023-12-17T05:45:27.263Z,69.75
2023-12-17T05:46:30.154Z,69.83
2023-12-17T05:47:34.017Z,69.66
2023-12-17T05:48:38.394Z,69.21
2023-12-17T05:49:42.496Z,69.61
2023-12-17T05:50:48.394Z,70.29
2023-12-17T05:51:53.186Z,70.37
2023-12-17T05:52:56.256Z,70.59
2023-12-17T05:53:59.888Z,70.09
2023-12-17T05:55:02.524Z,69.82
2023-12-17T05:56:06.941Z,69.50
2023-12-17T05:57:09.635Z,69.74
2023-12-17T05:58:13.463Z,70.31
2023-12-17T05:59:16.236Z,70.15
2023-12-17T06:00:20.775Z,70.14
2023-12-17T06:01:23.602Z,70.41
2023-12-17T06:02:27.286Z,70.15
2023-12-17T06:03:30.075Z,69.69
2023-12-17T06:04:35.460Z,70.75
2023-12-17T06:05:38.457Z,71.15
2023-12-17T06:06:42.297Z,71.63
2023-12-17T06:07:44.839Z,71.73
2023-12-17T06:08:47.382Z,72.23
2023-12-17T06:09:51.008Z,72.02
2023-12-17T06:10:53.471Z,72.47
2023-12-17T06:11:59.131Z,72.16
2023-12-17T06:13:01.664Z,71.47
2023-12-17T06:14:05.858Z,71.63
2023-12-17T06:15:08.752Z,71.87
2023-12-17T06:16:12.939Z,72.08
2023-12-17T06:17:15.536Z,72.08
2023-12-17T06:18:19.379Z,72.24
2023-12-17T06:19:22.187Z,71.77
2023-12-17T06:20:29.531Z,72.63
2023-12-17T06:21:32.292Z,72.56
2023-12-17T06:22:35.881Z,72.19
2023-12-17T06:23:38.606Z,72.38
2023-12-17T06:24:42.192Z,72.29
2023-12-17T06:25:45.118Z,72.42
2023-12-17T06:26:50.353Z,71.99
2023-12-17T06:27:54.039Z,72.29
2023-12-17T06:28:57.631Z,72.61
2023-12-17T06:30:00.372Z,73.50
2023-12-17T06:31:04.028Z,73.82
2023-12-17T06:32:09.023Z,74.18
2023-12-17T06:33:12.528Z,73.49
2023-12-17T06:34:15.129Z,72.45
2023-12-17T06:35:18.559Z,71.50
2023-12-17T06:36:22.550Z,71.35
2023-12-17T06:37:26.096Z,71.66
2023-12-17T06:38:28.453Z,71.40
2023-12-17T06:39:32.066Z,71.05
2023-12-17T06:40:34.611Z,71.29
2023-12-17T06:41:38.350Z,72.56
2023-12-17T06:42:40.799Z,73.06
2023-12-17T06:43:44.982Z,73.25
2023-12-17T06:44:47.367Z,73.32
2023-12-17T06:45:50.768Z,72.79
2023-12-17T06:46:53.308Z,72.65
2023-12-17T06:47:57.031Z,73.27
2023-12-17T06:48:59.592Z,73.26
2023-12-17T06:50:03.181Z,73.19
2023-12-17T06:51:06.624Z,73.41
2023-12-17T06:52:11.920Z,73.07
2023-12-17T06:53:18.056Z,73.71
2023-12-17T06:54:22.230Z,73.96
2023-12-17T06:55:24.790Z,74.95
2023-12-17T06:56:28.366Z,75.15
2023-12-17T06:57:30.868Z,75.42
2023-12-17T06:58:34.589Z,76.12
2023-12-17T06:59:37.107Z,76.84
2023-12-17T07:00:40.592Z,77.15
2023-12-17T07:01:42.969Z,77.29
2023-12-17T07:02:46.450Z,77.09
2023-12-17T07:03:49.084Z,76.67
2023-12-17T07:04:52.564Z,76.16
2023-12-17T07:05:55.133Z,76.66
2023-12-17T07:06:58.631Z,76.25
2023-12-17T07:08:02.715Z,76.00
2023-12-17T07:09:06.367Z,76.24
2023-12-17T07:10:10.003Z,76.47
2023-12-17T07:11:13.835Z,76.68
2023-12-17T07:12:16.530Z,77.10
2023-12-17T07:13:19.026Z,77.56
2023-12-17T07:14:23.096Z,78.00
2023-12-17T07:15:25.503Z,78.20
2023-12-17T07:16:30.627Z,78.08
2023-12-17T07:17:33.049Z,78.12
2023-12-17T07:18:35.805Z,77.73
2023-12-17T07:19:39.544Z,77.30
2023-12-17T07:20:42.179Z,77.47
2023-12-17T07:21:45.913Z,77.49
2023-12-17T07:22:49.454Z,77.26
2023-12-17T07:23:54.492Z,77.26
2023-12-17T07:24:56.941Z,77.34
2023-12-17T07:26:09.244Z,77.08
2023-12-17T07:27:12.146Z,77.13
2023-12-17T07:28:15.598Z,76.94
2023-12-17T07:29:18.020Z,76.32
2023-12-17T07:30:21.666Z,75.99
2023-12-17T07:31:24.835Z,76.01
2023-12-17T07:32:29.211Z,76.22
2023-12-17T07:33:31.893Z,76.62
2023-12-17T07:34:35.894Z,76.64
2023-12-17T07:35:38.594Z,76.61
2023-12-17T07:36:42.022Z,76.56
2023-12-17T07:37:44.631Z,76.02
2023-12-17T07:38:48.832Z,76.77
2023-12-17T07:39:53.166Z,76.72
2023-12-17T07:40:56.768Z,76.79
2023-12-17T07:41:59.346Z,75.97
2023-12-17T07:43:03.389Z,76.50
2023-12-17T07:44:05.984Z,76.07
2023-12-17T07:45:11.051Z,75.71
2023-12-17T07:46:13.623Z,76.30
2023-12-17T07:47:17.353Z,76.22
2023-12-17T07:48:20.189Z,75.68
2023-12-17T07:49:23.872Z,74.99
2023-12-17T07:50:26.513Z,74.58
2023-12-17T07:51:30.262Z,74.53
2023-12-17T07:52:32.877Z,73.56
2023-12-17T07:53:36.602Z,73.77
2023-12-17T07:54:39.294Z,73.90
2023-12-17T07:55:44.615Z,73.49
2023-12-17T07:56:47.756Z,72.90
2023-12-17T07:57:51.916Z,73.39
2023-12-17T07:58:54.827Z,73.28
2023-12-17T07:59:58.566Z,73.52
2023-12-17T08:01:01.201Z,73.01
2023-12-17T08:02:05.125Z,73.15
2023-12-17T08:03:07.850Z,73.29
2023-12-17T08:04:14.606Z,72.89
2023-12-17T08:05:18.994Z,73.05
2023-12-17T08:06:22.773Z,72.48
2023-12-17T08:07:25.439Z,72.38
2023-12-17T08:08:28.975Z,72.23
2023-12-17T08:09:31.611Z,71.62
2023-12-17T08:10:35.361Z,71.01
2023-12-17T08:11:39.399Z,70.19
2023-12-17T08:12:43.038Z,70.00
2023-12-17T08:13:45.957Z,69.88
2023-12-17T08:14:49.845Z,69.84
2023-12-17T08:15:52.424Z,69.39
2023-12-17T08:16:55.814Z,69.58
2023-12-17T08:17:58.728Z,69.52
2023-12-17T08:19:02.849Z,70.29
2023-12-17T08:20:06.121Z,70.31
2023-12-17T08:21:10.093Z,70.39
2023-12-17T08:22:12.974Z,70.17
2023-12-17T08:23:18.074Z,70.55
2023-12-17T08:24:20.845Z,70.96
2023-12-17T08:25:25.735Z,71.04
2023-12-17T08:26:28.537Z,70.95
2023-12-17T08:27:34.024Z,70.74
2023-12-17T08:28:36.867Z,70.00
2023-12-17T08:29:40.910Z,70.09
2023-12-17T08:30:43.650Z,69.09
2023-12-17T08:31:47.987Z,68.38
2023-12-17T08:32:50.740Z,67.97
2023-12-17T08:33:54.890Z,67.16
2023-12-17T08:34:57.553Z,65.88
2023-12-17T08:36:00.438Z,65.27
2023-12-17T08:37:04.311Z,64.51
2023-12-17T08:38:07.407Z,63.51
2023-12-17T08:39:13.042Z,62.73
2023-12-17T08:40:15.848Z,61.90
2023-12-17T08:41:19.426Z,61.98
2023-12-17T08:42:22.091Z,61.42
2023-12-17T08:43:26.995Z,61.15
2023-12-17T08:44:29.395Z,59.95
2023-12-17T08:45:33.107Z,58.45
2023-12-17T08:46:35.869Z,58.13
2023-12-17T08:47:39.955Z,57.81
2023-12-17T08:48:42.965Z,57.31
2023-12-17T08:49:47.581Z,56.69
2023-12-17T08:50:50.179Z,57.00
2023-12-17T08:51:53.921Z,56.37
2023-12-17T08:52:56.649Z,56.26
2023-12-17T08:54:00.839Z,55.40
2023-12-17T08:55:03.617Z,54.69
2023-12-17T08:56:10.955Z,54.94
2023-12-17T08:57:13.829Z,54.11
2023-12-17T08:58:18.535Z,54.23
2023-12-17T08:59:23.171Z,54.00
2023-12-17T09:00:28.844Z,54.84
2023-12-17T09:01:31.707Z,56.22
2023-12-17T09:02:36.891Z,56.48
2023-12-17T09:03:39.896Z,56.08
2023-12-17T09:04:45.282Z,55.80
2023-12-17T09:05:47.837Z,55.33
2023-12-17T09:06:51.557Z,54.23
2023-12-17T09:07:54.707Z,54.09
2023-12-17T09:08:58.435Z,53.34
2023-12-17T09:10:00.845Z,53.47
2023-12-17T09:11:04.396Z,53.84
2023-12-17T09:12:07.944Z,53.44
2023-12-17T09:13:12.357Z,52.70
2023-12-17T09:14:15.080Z,53.46
2023-12-17T09:15:20.172Z,53.04
2023-12-17T09:16:22.643Z,52.00
2023-12-17T09:17:28.334Z,52.20
2023-12-17T09:18:31.295Z,52.59
2023-12-17T09:19:34.967Z,52.77
2023-12-17T09:20:38.016Z,52.44
2023-12-17T09:21:41.775Z,52.04
2023-12-17T09:22:44.446Z,51.82
2023-12-17T09:23:48.983Z,51.75
2023-12-17T09:24:51.730Z,52.41
2023-12-17T09:25:56.001Z,51.91
2023-12-17T09:26:59.197Z,51.73
2023-12-17T09:28:05.419Z,50.11
2023-12-17T09:29:08.848Z,49.36
2023-12-17T09:30:14.075Z,48.81
2023-12-17T09:31:18.181Z,47.90
2023-12-17T09:32:21.986Z,46.18
2023-12-17T09:33:25.438Z,47.20
2023-12-17T09:34:29.440Z,46.47
2023-12-17T09:35:32.749Z,46.26
2023-12-17T09:36:36.721Z,45.25
2023-12-17T09:37:40.323Z,45.04
2023-12-17T09:38:44.308Z,45.22
2023-12-17T09:39:47.235Z,45.21
2023-12-17T09:40:51.563Z,43.86
2023-12-17T09:41:54.212Z,41.80
2023-12-17T09:42:58.961Z,42.31
2023-12-17T09:44:01.757Z,42.42
2023-12-17T09:45:05.884Z,41.89
2023-12-17T09:46:08.343Z,42.05
2023-12-17T09:47:13.254Z,42.87
2023-12-17T09:48:15.862Z,42.06
2023-12-17T09:49:19.554Z,42.48
2023-12-17T09:50:22.166Z,42.09
2023-12-17T09:51:26.564Z,40.99
2023-12-17T09:52:32.029Z,40.21
2023-12-17T09:53:36.931Z,39.37
2023-12-17T09:54:39.905Z,40.09
2023-12-17T09:55:43.482Z,40.32
2023-12-17T09:56:48.462Z,39.70
2023-12-17T09:57:53.144Z,39.83
2023-12-17T09:58:55.613Z,40.21
2023-12-17T09:59:58.114Z,40.54
2023-12-17T10:01:01.875Z,39.94
2023-12-17T10:02:04.831Z,40.17
2023-12-17T10:03:13.930Z,41.14
2023-12-17T10:04:17.088Z,41.79
2023-12-17T10:05:23.991Z,42.08
2023-12-17T10:06:26.762Z,41.93
2023-12-17T10:07:30.407Z,40.69
2023-12-17T10:08:34.686Z,41.35
2023-12-17T10:09:38.345Z,40.74
2023-12-17T10:10:42.035Z,40.97
2023-12-17T10:11:45.743Z,41.11
2023-12-17T10:12:49.002Z,40.53
2023-12-17T10:13:54.075Z,41.30
2023-12-17T10:14:57.120Z,41.24
2023-12-17T10:16:00.784Z,40.76
2023-12-17T10:17:03.573Z,40.36
2023-12-17T10:18:08.674Z,40.09
2023-12-17T10:19:14.050Z,40.09
2023-12-17T10:20:21.430Z,40.01
2023-12-17T10:21:23.977Z,40.79
2023-12-17T10:22:27.825Z,40.78
2023-12-17T10:23:46.798Z,41.01
2023-12-17T10:24:51.606Z,41.23
2023-12-17T10:26:00.801Z,41.71
2023-12-17T10:27:16.716Z,43.17
2023-12-17T10:28:20.430Z,41.43
2023-12-17T10:29:25.593Z,41.37
2023-12-17T10:30:30.872Z,41.40
2023-12-17T10:31:35.942Z,40.86
2023-12-17T10:32:44.873Z,40.33
2023-12-17T10:33:56.632Z,40.52
2023-12-17T10:35:01.223Z,40.89
2023-12-17T10:36:04.268Z,41.12
2023-12-17T10:37:09.341Z,43.05
2023-12-17T10:38:13.785Z,43.06
2023-12-17T10:39:18.242Z,43.26
2023-12-17T10:40:22.090Z,42.14
2023-12-17T10:41:27.889Z,41.85
2023-12-17T10:42:33.748Z,41.32
2023-12-17T10:43:39.372Z,41.39
2023-12-17T10:44:42.632Z,41.64
2023-12-17T10:45:48.433Z,41.89
2023-12-17T10:46:54.958Z,42.17
2023-12-17T10:47:59.182Z,42.64
2023-12-17T10:49:01.855Z,43.15
2023-12-17T10:50:07.197Z,42.31
2023-12-17T10:51:12.161Z,42.31
2023-12-17T10:52:14.734Z,41.98
2023-12-17T10:53:18.421Z,42.07
2023-12-17T10:54:20.740Z,41.43
2023-12-17T10:55:24.569Z,40.39
2023-12-17T10:56:27.563Z,41.78
2023-12-17T10:57:32.773Z,41.78
2023-12-17T10:58:36.899Z,41.96
2023-12-17T10:59:42.091Z,41.57
2023-12-17T11:00:45.736Z,41.15
2023-12-17T11:01:51.979Z,41.40
2023-12-17T11:02:59.544Z,42.51
2023-12-17T11:04:04.687Z,41.82
2023-12-17T11:05:09.238Z,41.74
2023-12-17T11:06:12.914Z,41.15
2023-12-17T11:07:27.478Z,42.12
2023-12-17T11:08:38.932Z,42.04
2023-12-17T11:09:41.793Z,41.66
2023-12-17T11:10:47.288Z,41.75
2023-12-17T11:11:52.428Z,42.39
2023-12-17T11:12:57.747Z,41.66
2023-12-17T11:14:00.723Z,41.90
2023-12-17T11:15:03.571Z,41.72
2023-12-17T11:16:23.442Z,41.22
2023-12-17T11:17:26.054Z,42.01
2023-12-17T11:18:44.533Z,41.97
2023-12-17T11:20:01.236Z,42.24
2023-12-17T11:21:06.589Z,42.35
2023-12-17T11:22:09.688Z,42.23
2023-12-17T11:23:13.412Z,40.68
2023-12-17T11:24:19.834Z,40.58
2023-12-17T11:25:32.758Z,40.55
2023-12-17T11:26:41.885Z,40.94
2023-12-17T11:27:48.206Z,40.96
2023-12-17T11:28:50.833Z,41.69
2023-12-17T11:29:54.911Z,41.61
2023-12-17T11:30:58.170Z,42.31
2023-12-17T11:32:02.875Z,42.50
2023-12-17T11:33:07.095Z,41.14
2023-12-17T11:34:10.922Z,42.23
2023-12-17T11:35:15.292Z,41.03
2023-12-17T11:36:20.374Z,40.29
2023-12-17T11:37:25.965Z,39.87
2023-12-17T11:38:29.017Z,40.29
2023-12-17T11:39:33.482Z,39.72
2023-12-17T11:40:39.356Z,39.71
2023-12-17T11:41:43.351Z,40.72
2023-12-17T11:42:56.687Z,39.39
2023-12-17T11:44:00.687Z,39.07
2023-12-17T11:45:03.833Z,38.96
2023-12-17T11:46:12.829Z,40.05
2023-12-17T11:47:17.184Z,39.59
2023-12-17T11:48:23.786Z,39.61
2023-12-17T11:49:27.886Z,38.37
2023-12-17T11:50:41.065Z,38.49
2023-12-17T11:51:46.386Z,37.32
2023-12-17T11:53:02.781Z,38.35
2023-12-17T11:54:06.974Z,38.99
2023-12-17T11:55:10.670Z,39.31
2023-12-17T11:56:14.938Z,39.16
2023-12-17T11:57:21.998Z,39.14
2023-12-17T11:58:26.427Z,39.69
2023-12-17T11:59:38.587Z,39.55
2023-12-17T12:00:42.452Z,39.61
2023-12-17T12:01:44.869Z,38.69
2023-12-17T12:02:48.440Z,38.34
2023-12-17T12:03:56.706Z,38.96
2023-12-17T12:05:00.890Z,38.82
2023-12-17T12:06:08.487Z,39.63
2023-12-17T12:07:14.300Z,39.05
2023-12-17T12:08:17.028Z,38.85
2023-12-17T12:09:21.760Z,38.50
2023-12-17T12:10:24.970Z,39.58
2023-12-17T12:11:34.707Z,39.34
2023-12-17T12:12:37.826Z,40.25
2023-12-17T12:13:44.912Z,39.99
2023-12-17T12:14:50.636Z,39.43
2023-12-17T12:15:54.544Z,41.01
2023-12-17T12:16:57.581Z,41.38
2023-12-17T12:18:01.391Z,41.77
2023-12-17T12:19:04.823Z,41.26
2023-12-17T12:20:10.933Z,41.24
2023-12-17T12:21:18.326Z,39.69
2023-12-17T12:22:29.841Z,39.96
2023-12-17T12:23:32.409Z,39.66
2023-12-17T12:24:37.704Z,39.91
2023-12-17T12:25:40.743Z,40.74
2023-12-17T12:26:44.464Z,40.67
2023-12-17T12:27:47.297Z,40.08
2023-12-17T12:28:57.679Z,40.88
2023-12-17T12:30:00.283Z,40.58
2023-12-17T12:31:11.410Z,40.58
2023-12-17T12:32:27.074Z,39.87
2023-12-17T12:33:32.470Z,38.88
2023-12-17T12:34:36.279Z,37.46
2023-12-17T12:35:39.898Z,38.31
2023-12-17T12:36:48.709Z,39.15
2023-12-17T12:37:52.862Z,39.16
2023-12-17T12:39:03.983Z,40.07
2023-12-17T12:40:11.676Z,39.89
2023-12-17T12:41:16.468Z,38.86
2023-12-17T12:42:19.871Z,39.67
2023-12-17T12:43:25.093Z,39.58
2023-12-17T12:44:27.968Z,39.41
2023-12-17T12:45:31.001Z,38.77
2023-12-17T12:46:35.996Z,39.61
2023-12-17T12:47:39.081Z,40.96
2023-12-17T12:48:43.047Z,41.42
2023-12-17T12:49:45.625Z,40.18
2023-12-17T12:50:49.455Z,40.67
2023-12-17T12:51:52.023Z,39.83
2023-12-17T12:52:57.615Z,39.79
2023-12-17T12:54:03.820Z,40.06
2023-12-17T12:55:07.363Z,40.01
2023-12-17T12:56:11.759Z,39.91
2023-12-17T12:57:14.294Z,40.04
2023-12-17T12:58:19.347Z,39.36
2023-12-17T12:59:23.823Z,39.42
2023-12-17T13:00:30.258Z,39.30
2023-12-17T13:01:32.773Z,39.50
2023-12-17T13:02:36.280Z,39.84
2023-12-17T13:03:39.321Z,39.53
2023-12-17T13:04:42.927Z,39.94
2023-12-17T13:05:45.513Z,40.55
2023-12-17T13:06:49.226Z,41.42
2023-12-17T13:07:52.058Z,40.87
2023-12-17T13:08:57.307Z,41.30
2023-12-17T13:10:07.858Z,40.44
2023-12-17T13:11:14.406Z,42.00
2023-12-17T13:12:17.881Z,41.45
2023-12-17T13:13:21.691Z,41.10
2023-12-17T13:14:24.546Z,40.27
2023-12-17T13:15:29.002Z,40.46
2023-12-17T13:16:33.411Z,39.17
2023-12-17T13:17:36.171Z,39.87
2023-12-17T13:18:40.176Z,39.42
2023-12-17T13:19:42.678Z,39.70
2023-12-17T13:20:45.209Z,39.82
2023-12-17T13:21:48.922Z,39.50
2023-12-17T13:22:51.778Z,39.29
2023-12-17T13:23:56.814Z,39.29
2023-12-17T13:24:59.272Z,39.34
2023-12-17T13:26:07.788Z,38.82
2023-12-17T13:27:16.994Z,40.29
2023-12-17T13:28:20.390Z,40.47
2023-12-17T13:29:22.866Z,41.91
2023-12-17T13:30:27.169Z,41.75
2023-12-17T13:31:31.991Z,40.47
2023-12-17T13:32:34.581Z,39.03
2023-12-17T13:33:38.051Z,40.69
2023-12-17T13:34:40.374Z,41.76
2023-12-17T13:35:43.737Z,41.94
2023-12-17T13:36:46.682Z,42.24
2023-12-17T13:37:51.086Z,41.81
2023-12-17T13:38:53.397Z,42.04
2023-12-17T13:39:58.181Z,42.04
2023-12-17T13:41:00.860Z,42.92
2023-12-17T13:42:04.840Z,44.00
2023-12-17T13:43:09.081Z,44.16
2023-12-17T13:44:12.964Z,43.79
2023-12-17T13:45:15.397Z,44.41
2023-12-17T13:46:19.065Z,43.59
2023-12-17T13:47:21.497Z,43.54
2023-12-17T13:48:25.184Z,43.19